createdAt,value
2023-03-06T00:00:56.769Z,3.35
2023-03-06T00:03:27.722Z,3.34
2023-03-06T00:05:57.493Z,3.34
2023-03-06T00:08:26.640Z,3.33
2023-03-06T00:10:54.929Z,3.35
2023-03-06T00:13:22.560Z,3.36
2023-03-06T00:15:50.415Z,3.30
2023-03-06T00:18:17.671Z,3.32
2023-03-06T00:20:45.304Z,3.26
2023-03-06T00:23:13.071Z,3.23
2023-03-06T00:25:45.294Z,3.26
2023-03-06T00:28:14.917Z,3.31
2023-03-06T00:30:43.150Z,3.31
2023-03-06T00:33:10.623Z,3.33
2023-03-06T00:35:42.016Z,3.31
2023-03-06T00:38:12.456Z,3.28
2023-03-06T00:40:39.981Z,3.18
2023-03-06T00:43:07.217Z,3.12
2023-03-06T00:45:34.550Z,3.18
2023-03-06T00:48:01.621Z,3.20
2023-03-06T00:50:28.869Z,3.13
2023-03-06T00:52:55.913Z,3.17
2023-03-06T00:55:23.298Z,3.19
2023-03-06T00:57:50.394Z,3.21
2023-03-06T01:00:18.413Z,3.20
2023-03-06T01:02:45.319Z,3.19
2023-03-06T01:05:14.514Z,3.20
2023-03-06T01:07:41.526Z,3.10
2023-03-06T01:10:10.690Z,3.06
2023-03-06T01:12:37.767Z,3.05
2023-03-06T01:15:06.994Z,3.00
2023-03-06T01:17:33.960Z,3.06
2023-03-06T01:20:01.666Z,3.09
2023-03-06T01:22:28.655Z,3.13
2023-03-06T01:24:55.923Z,3.16
2023-03-06T01:27:22.876Z,3.17
2023-03-06T01:29:50.037Z,3.19
2023-03-06T01:32:17.038Z,3.18
2023-03-06T01:34:44.367Z,3.17
2023-03-06T01:37:11.530Z,3.09
2023-03-06T01:39:38.751Z,3.07
2023-03-06T01:42:06.005Z,3.04
2023-03-06T01:44:33.475Z,3.06
2023-03-06T01:47:02.387Z,3.04
2023-03-06T01:49:36.740Z,2.92
2023-03-06T01:52:14.577Z,2.87
2023-03-06T01:54:59.199Z,2.89
2023-03-06T01:57:34.046Z,2.85
2023-03-06T02:00:14.726Z,2.89
2023-03-06T02:02:47.690Z,2.86
2023-03-06T02:05:14.999Z,2.85
2023-03-06T02:07:44.926Z,2.89
2023-03-06T02:10:13.276Z,2.91
2023-03-06T02:12:43.782Z,2.93
2023-03-06T02:15:14.904Z,2.94
2023-03-06T02:17:44.932Z,2.92
2023-03-06T02:20:21.209Z,2.90
2023-03-06T02:23:14.873Z,2.88
2023-03-06T02:25:48.480Z,2.90
2023-03-06T02:28:21.621Z,2.89
2023-03-06T02:30:52.333Z,2.89
2023-03-06T02:33:24.888Z,2.84
2023-03-06T02:35:58.962Z,2.78
2023-03-06T02:38:34.452Z,2.77
2023-03-06T02:41:06.911Z,2.68
2023-03-06T02:43:40.027Z,2.72
2023-03-06T02:46:07.913Z,2.71
2023-03-06T02:48:34.905Z,2.67
2023-03-06T02:51:02.095Z,2.71
2023-03-06T02:53:28.987Z,2.72
2023-03-06T02:55:56.237Z,2.71
2023-03-06T02:58:23.301Z,2.75
2023-03-06T03:00:51.072Z,2.76
2023-03-06T03:03:18.776Z,2.74
2023-03-06T03:05:45.922Z,2.73
2023-03-06T03:08:12.936Z,2.70
2023-03-06T03:10:40.221Z,2.64
2023-03-06T03:13:07.337Z,2.66
2023-03-06T03:15:34.653Z,2.63
2023-03-06T03:18:01.578Z,2.61
2023-03-06T03:20:28.830Z,2.64
2023-03-06T03:22:56.452Z,2.63
2023-03-06T03:25:26.352Z,2.62
2023-03-06T03:27:53.767Z,2.64
2023-03-06T03:30:21.135Z,2.63
2023-03-06T03:32:48.092Z,2.54
2023-03-06T03:35:15.320Z,2.59
2023-03-06T03:37:42.374Z,2.60
2023-03-06T03:40:10.816Z,2.60
2023-03-06T03:42:37.908Z,2.59
2023-03-06T03:45:05.678Z,2.63
2023-03-06T03:47:32.703Z,2.69
2023-03-06T03:49:59.855Z,2.70
2023-03-06T03:52:26.923Z,2.70
2023-03-06T03:54:54.224Z,2.72
2023-03-06T03:57:21.272Z,2.67
2023-03-06T03:59:48.460Z,2.69
2023-03-06T04:02:15.653Z,2.64
2023-03-06T04:04:43.348Z,2.64
2023-03-06T04:07:10.436Z,2.64
2023-03-06T04:09:37.736Z,2.64
2023-03-06T04:12:06.461Z,2.68
2023-03-06T04:14:34.279Z,2.68
2023-03-06T04:17:01.228Z,2.67
2023-03-06T04:19:28.536Z,2.68
2023-03-06T04:21:55.457Z,2.70
2023-03-06T04:24:22.636Z,2.67
2023-03-06T04:26:49.550Z,2.66
2023-03-06T04:29:16.970Z,2.63
2023-03-06T04:31:43.915Z,2.66
2023-03-06T04:34:11.281Z,2.64
2023-03-06T04:36:38.703Z,2.59
2023-03-06T04:39:05.942Z,2.62
2023-03-06T04:41:33.800Z,2.59
2023-03-06T04:44:01.120Z,2.63
2023-03-06T04:46:28.074Z,2.60
2023-03-06T04:48:55.303Z,2.63
2023-03-06T04:51:22.295Z,2.63
2023-03-06T04:53:49.671Z,2.57
2023-03-06T04:56:16.736Z,2.58
2023-03-06T04:58:45.177Z,2.58
2023-03-06T05:01:12.902Z,2.58
2023-03-06T05:03:40.313Z,2.57
2023-03-06T05:06:07.655Z,2.61
2023-03-06T05:08:35.186Z,2.57
2023-03-06T05:11:02.572Z,2.57
2023-03-06T05:13:29.937Z,2.58
2023-03-06T05:16:04.037Z,2.57
2023-03-06T05:18:32.766Z,2.66
2023-03-06T05:21:00.195Z,2.70
2023-03-06T05:23:29.678Z,2.75
2023-03-06T05:25:58.259Z,2.80
2023-03-06T05:28:26.536Z,2.84
2023-03-06T05:30:53.622Z,2.78
2023-03-06T05:33:20.820Z,2.80
2023-03-06T05:35:49.009Z,2.78
2023-03-06T05:38:17.695Z,2.71
2023-03-06T05:40:45.897Z,2.75
2023-03-06T05:43:13.290Z,2.77
2023-03-06T05:45:41.307Z,2.69
2023-03-06T05:48:09.311Z,2.66
2023-03-06T05:50:36.296Z,2.67
2023-03-06T05:53:03.859Z,2.67
2023-03-06T05:55:31.206Z,2.68
2023-03-06T05:57:58.477Z,2.70
2023-03-06T06:00:25.802Z,2.72
2023-03-06T06:02:54.457Z,2.73
2023-03-06T06:05:21.404Z,2.79
2023-03-06T06:07:48.686Z,2.85
2023-03-06T06:10:15.976Z,2.89
2023-03-06T06:12:43.368Z,2.91
2023-03-06T06:15:10.764Z,2.92
2023-03-06T06:17:38.029Z,2.95
2023-03-06T06:20:05.657Z,2.94
2023-03-06T06:22:37.988Z,2.95
2023-03-06T06:25:06.727Z,2.96
2023-03-06T06:27:34.394Z,2.97
2023-03-06T06:30:01.374Z,2.99
2023-03-06T06:32:28.766Z,3.06
2023-03-06T06:34:55.906Z,3.13
2023-03-06T06:37:23.417Z,3.14
2023-03-06T06:39:50.889Z,3.21
2023-03-06T06:42:31.460Z,3.24
2023-03-06T06:45:05.386Z,3.19
2023-03-06T06:47:34.344Z,3.16
2023-03-06T06:50:01.492Z,3.19
2023-03-06T06:52:28.808Z,3.17
2023-03-06T06:54:55.830Z,3.17
2023-03-06T06:57:23.037Z,3.07
2023-03-06T06:59:52.392Z,3.02
2023-03-06T07:02:21.293Z,3.01
2023-03-06T07:05:02.942Z,3.04
2023-03-06T07:07:37.343Z,3.09
2023-03-06T07:10:11.967Z,3.10
2023-03-06T07:12:39.370Z,3.16
2023-03-06T07:15:08.236Z,3.16
2023-03-06T07:17:35.893Z,3.15
2023-03-06T07:20:04.624Z,3.25
2023-03-06T07:22:41.431Z,3.32
2023-03-06T07:25:12.691Z,3.41
2023-03-06T07:27:40.062Z,3.50
2023-03-06T07:30:08.363Z,3.62
2023-03-06T07:32:36.037Z,3.67
2023-03-06T07:35:19.019Z,3.75
2023-03-06T07:37:47.152Z,3.77
2023-03-06T07:40:14.563Z,3.78
2023-03-06T07:42:41.806Z,3.76
2023-03-06T07:45:18.031Z,3.88
2023-03-06T07:47:46.345Z,3.96
2023-03-06T07:50:13.658Z,4.06
2023-03-06T07:52:40.955Z,4.06
2023-03-06T07:55:09.708Z,4.06
2023-03-06T07:57:38.684Z,4.06
2023-03-06T08:00:10.471Z,4.00
2023-03-06T08:02:37.770Z,4.01
2023-03-06T08:05:06.317Z,4.03
2023-03-06T08:07:33.836Z,4.03
2023-03-06T08:10:01.154Z,3.94
2023-03-06T08:12:28.555Z,4.03
2023-03-06T08:14:55.561Z,4.08
2023-03-06T08:17:22.973Z,4.08
2023-03-06T08:19:50.155Z,3.99
2023-03-06T08:22:17.455Z,3.99
2023-03-06T08:24:44.469Z,4.08
2023-03-06T08:27:11.696Z,3.98
2023-03-06T08:29:38.752Z,4.00
2023-03-06T08:32:06.420Z,4.07
2023-03-06T08:34:33.435Z,4.11
2023-03-06T08:37:00.590Z,4.19
2023-03-06T08:39:27.521Z,4.18
2023-03-06T08:41:54.751Z,4.27
2023-03-06T08:44:21.698Z,4.37
2023-03-06T08:46:49.005Z,4.47
2023-03-06T08:49:15.914Z,4.56
2023-03-06T08:51:43.315Z,4.59
2023-03-06T08:54:13.371Z,4.55
2023-03-06T08:56:40.784Z,4.63
2023-03-06T08:59:09.443Z,4.66
2023-03-06T09:01:38.476Z,4.67
2023-03-06T09:04:09.934Z,4.77
2023-03-06T09:06:41.422Z,4.88
2023-03-06T09:09:09.539Z,4.97
2023-03-06T09:11:37.422Z,5.09
2023-03-06T09:14:05.652Z,4.85
2023-03-06T09:16:33.561Z,4.80
2023-03-06T09:19:00.651Z,4.97
2023-03-06T09:21:28.740Z,4.97
2023-03-06T09:23:56.213Z,4.96
2023-03-06T09:26:32.803Z,5.03
2023-03-06T09:29:07.651Z,5.14
2023-03-06T09:31:35.261Z,5.01
2023-03-06T09:34:02.228Z,5.12
2023-03-06T09:36:30.394Z,5.25
2023-03-06T09:38:57.443Z,5.15
2023-03-06T09:41:27.848Z,5.27
2023-03-06T09:44:13.526Z,5.40
2023-03-06T09:47:21.545Z,5.41
2023-03-06T09:50:32.755Z,5.56
2023-03-06T09:53:27.517Z,5.52
2023-03-06T09:56:23.511Z,5.53
2023-03-06T09:58:58.270Z,5.48
2023-03-06T10:01:31.677Z,5.59
2023-03-06T10:04:38.818Z,5.71
2023-03-06T10:07:42.708Z,5.72
2023-03-06T10:10:22.466Z,5.92
2023-03-06T10:13:19.595Z,5.92
2023-03-06T10:15:49.928Z,5.78
2023-03-06T10:18:17.133Z,5.79
2023-03-06T10:21:07.387Z,5.86
2023-03-06T10:24:09.521Z,5.86
2023-03-06T10:26:59.531Z,5.81
2023-03-06T10:30:02.833Z,5.82
2023-03-06T10:32:55.217Z,5.87
2023-03-06T10:35:36.864Z,5.93
2023-03-06T10:38:27.057Z,5.70
2023-03-06T10:41:12.469Z,5.92
2023-03-06T10:43:46.008Z,5.91
2023-03-06T10:46:32.056Z,5.94
2023-03-06T10:49:24.333Z,6.02
2023-03-06T10:52:16.446Z,6.04
2023-03-06T10:54:45.672Z,6.11
2023-03-06T10:57:24.934Z,6.14
2023-03-06T11:00:05.305Z,6.16
2023-03-06T11:02:38.661Z,6.14
2023-03-06T11:05:19.989Z,5.98
2023-03-06T11:08:01.185Z,6.08
2023-03-06T11:10:31.106Z,6.19
2023-03-06T11:13:08.574Z,6.09
2023-03-06T11:15:36.323Z,6.01
2023-03-06T11:18:31.038Z,6.07
2023-03-06T11:20:58.495Z,6.03
2023-03-06T11:23:43.724Z,6.07
2023-03-06T11:26:16.878Z,6.09
2023-03-06T11:29:07.679Z,6.00
2023-03-06T11:31:56.976Z,5.89
2023-03-06T11:35:35.907Z,6.03
2023-03-06T11:38:16.005Z,6.07
2023-03-06T11:40:55.908Z,6.06
2023-03-06T11:43:49.683Z,5.96
2023-03-06T11:46:48.684Z,6.20
2023-03-06T11:49:32.206Z,6.07
2023-03-06T11:52:10.292Z,6.07
2023-03-06T11:54:37.621Z,6.17
2023-03-06T11:57:35.294Z,6.29
2023-03-06T12:00:22.963Z,6.39
2023-03-06T12:03:14.627Z,6.50
2023-03-06T12:06:23.195Z,6.42
2023-03-06T12:09:23.328Z,6.41
2023-03-06T12:12:07.339Z,6.63
2023-03-06T12:15:12.633Z,6.71
2023-03-06T12:17:48.656Z,6.74
2023-03-06T12:20:49.454Z,6.89
2023-03-06T12:24:10.742Z,7.08
2023-03-06T12:27:08.477Z,7.23
2023-03-06T12:30:24.781Z,7.30
2023-03-06T12:33:13.029Z,7.39
2023-03-06T12:35:53.869Z,7.46
2023-03-06T12:38:45.986Z,7.51
2023-03-06T12:41:35.595Z,7.45
2023-03-06T12:44:16.496Z,7.40
2023-03-06T12:47:02.402Z,7.41
2023-03-06T12:49:38.687Z,7.50
2023-03-06T12:52:09.796Z,7.57
2023-03-06T12:54:41.196Z,7.48
2023-03-06T12:57:10.079Z,7.45
2023-03-06T12:59:50.011Z,7.41
2023-03-06T13:02:54.819Z,7.38
2023-03-06T13:05:38.389Z,7.26
2023-03-06T13:08:46.548Z,7.35
2023-03-06T13:11:27.788Z,7.44
2023-03-06T13:13:55.407Z,7.51
2023-03-06T13:16:31.669Z,7.50
2023-03-06T13:19:16.160Z,7.54
2023-03-06T13:21:56.195Z,7.45
2023-03-06T13:24:32.739Z,7.35
2023-03-06T13:27:12.364Z,7.22
2023-03-06T13:29:39.466Z,7.20
2023-03-06T13:32:27.909Z,7.28
2023-03-06T13:34:55.345Z,7.35
2023-03-06T13:37:25.050Z,7.35
2023-03-06T13:39:55.276Z,7.47
2023-03-06T13:42:57.775Z,7.51
2023-03-06T13:45:42.036Z,7.57
2023-03-06T13:48:45.729Z,7.58
2023-03-06T13:51:27.905Z,7.63
2023-03-06T13:54:09.350Z,7.70
2023-03-06T13:56:39.493Z,7.73
2023-03-06T13:59:30.734Z,7.50
2023-03-06T14:02:47.803Z,7.45
2023-03-06T14:05:18.007Z,7.35
2023-03-06T14:08:09.179Z,7.30
2023-03-06T14:10:38.951Z,7.22
2023-03-06T14:13:17.515Z,7.13
2023-03-06T14:15:50.354Z,7.24
2023-03-06T14:18:40.175Z,7.35
2023-03-06T14:21:13.793Z,7.43
2023-03-06T14:23:47.038Z,7.49
2023-03-06T14:26:29.723Z,7.41
2023-03-06T14:29:01.475Z,7.40
2023-03-06T14:31:33.571Z,7.42
2023-03-06T14:34:23.188Z,7.54
2023-03-06T14:36:54.710Z,7.50
2023-03-06T14:39:36.265Z,7.58
2023-03-06T14:42:25.461Z,7.63
2023-03-06T14:45:05.643Z,7.69
2023-03-06T14:47:37.340Z,7.64
2023-03-06T14:50:28.613Z,7.68
2023-03-06T14:53:29.407Z,7.64
2023-03-06T14:56:06.298Z,7.46
2023-03-06T14:59:08.827Z,7.47
2023-03-06T15:01:45.694Z,7.45
2023-03-06T15:05:09.287Z,7.39
2023-03-06T15:07:37.433Z,7.27
2023-03-06T15:10:10.516Z,7.12
2023-03-06T15:12:38.924Z,6.98
2023-03-06T15:15:10.488Z,6.82
2023-03-06T15:17:44.190Z,6.71
2023-03-06T15:20:42.020Z,6.60
2023-03-06T15:23:34.059Z,6.59
2023-03-06T15:26:19.085Z,6.46
2023-03-06T15:29:12.923Z,6.43
2023-03-06T15:31:45.743Z,6.41
2023-03-06T15:34:12.956Z,6.36
2023-03-06T15:36:51.480Z,6.39
2023-03-06T15:39:39.991Z,6.34
2023-03-06T15:42:29.295Z,6.34
2023-03-06T15:45:03.353Z,6.33
2023-03-06T15:47:30.546Z,6.33
2023-03-06T15:49:57.889Z,6.27
2023-03-06T15:52:25.096Z,6.06
2023-03-06T15:54:52.414Z,5.96
2023-03-06T15:57:29.454Z,5.86
2023-03-06T16:00:00.221Z,5.58
2023-03-06T16:02:27.657Z,5.53
2023-03-06T16:04:55.098Z,5.47
2023-03-06T16:07:22.343Z,5.43
2023-03-06T16:09:49.763Z,5.40
2023-03-06T16:12:20.461Z,5.42
2023-03-06T16:14:49.347Z,5.35
2023-03-06T16:17:17.691Z,5.27
2023-03-06T16:19:45.334Z,5.23
2023-03-06T16:22:12.633Z,5.29
2023-03-06T16:24:39.792Z,5.35
2023-03-06T16:27:16.016Z,5.36
2023-03-06T16:29:46.596Z,5.40
2023-03-06T16:32:15.120Z,5.34
2023-03-06T16:34:42.420Z,5.27
2023-03-06T16:37:13.892Z,5.16
2023-03-06T16:39:41.220Z,5.14
2023-03-06T16:42:08.501Z,5.10
2023-03-06T16:44:35.843Z,5.04
2023-03-06T16:47:03.169Z,5.02
2023-03-06T16:49:30.550Z,5.08
2023-03-06T16:51:57.820Z,5.01
2023-03-06T16:54:26.289Z,5.04
2023-03-06T16:56:53.386Z,5.11
2023-03-06T16:59:20.670Z,5.09
2023-03-06T17:01:47.708Z,5.06
2023-03-06T17:04:15.126Z,5.06
2023-03-06T17:06:43.262Z,5.08
2023-03-06T17:09:11.041Z,5.10
2023-03-06T17:11:43.496Z,5.02
2023-03-06T17:14:11.247Z,5.04
2023-03-06T17:16:40.572Z,5.02
2023-03-06T17:19:15.324Z,4.98
2023-03-06T17:21:44.416Z,5.02
2023-03-06T17:24:11.750Z,5.03
2023-03-06T17:26:39.218Z,4.90
2023-03-06T17:29:07.188Z,4.92
2023-03-06T17:31:35.645Z,5.00
2023-03-06T17:34:03.039Z,5.01
2023-03-06T17:36:31.920Z,5.04
2023-03-06T17:39:02.170Z,5.03
2023-03-06T17:41:30.161Z,5.03
2023-03-06T17:43:59.136Z,5.02
2023-03-06T17:46:26.567Z,5.05
2023-03-06T17:48:55.340Z,5.03
2023-03-06T17:51:22.337Z,5.04
2023-03-06T17:53:52.216Z,4.97
2023-03-06T17:56:19.410Z,4.81
2023-03-06T17:58:46.639Z,4.87
2023-03-06T18:01:23.141Z,4.88
2023-03-06T18:03:51.857Z,4.89
2023-03-06T18:06:20.787Z,4.91
2023-03-06T18:08:52.305Z,4.88
2023-03-06T18:11:20.281Z,4.80
2023-03-06T18:13:48.840Z,4.84
2023-03-06T18:16:20.587Z,4.85
2023-03-06T18:18:48.190Z,4.90
2023-03-06T18:21:16.784Z,4.90
2023-03-06T18:23:44.262Z,4.93
2023-03-06T18:26:16.729Z,4.86
2023-03-06T18:28:48.589Z,4.87
2023-03-06T18:31:23.450Z,4.96
2023-03-06T18:33:57.284Z,4.91
2023-03-06T18:36:30.411Z,4.91
2023-03-06T18:39:00.792Z,4.96
2023-03-06T18:41:28.523Z,4.97
2023-03-06T18:43:59.941Z,4.96
2023-03-06T18:46:33.082Z,4.96
2023-03-06T18:49:01.571Z,4.99
2023-03-06T18:51:29.349Z,4.93
2023-03-06T18:53:58.293Z,4.95
2023-03-06T18:56:25.473Z,5.01
2023-03-06T18:58:53.939Z,5.01
2023-03-06T19:01:22.636Z,4.97
2023-03-06T19:03:50.412Z,4.96
2023-03-06T19:06:18.209Z,4.99
2023-03-06T19:08:45.425Z,5.08
2023-03-06T19:11:16.244Z,5.01
2023-03-06T19:13:44.813Z,4.98
2023-03-06T19:16:23.269Z,4.99
2023-03-06T19:18:51.005Z,5.02
2023-03-06T19:21:21.124Z,5.07
2023-03-06T19:23:48.910Z,5.02
2023-03-06T19:26:18.821Z,4.95
2023-03-06T19:28:47.731Z,4.94
2023-03-06T19:31:21.909Z,4.99
2023-03-06T19:33:53.040Z,4.99
2023-03-06T19:36:26.500Z,4.98
2023-03-06T19:39:03.939Z,5.00
2023-03-06T19:41:30.898Z,5.01
2023-03-06T19:44:02.665Z,5.04
2023-03-06T19:46:30.007Z,4.96
2023-03-06T19:49:02.770Z,4.97
2023-03-06T19:51:30.091Z,4.93
2023-03-06T19:53:58.210Z,4.94
2023-03-06T19:56:29.067Z,4.95
2023-03-06T19:58:57.024Z,4.98
2023-03-06T20:01:27.916Z,5.00
2023-03-06T20:03:59.239Z,4.96
2023-03-06T20:06:33.460Z,4.91
2023-03-06T20:09:04.122Z,4.90
2023-03-06T20:11:31.376Z,4.86
2023-03-06T20:14:01.716Z,4.91
2023-03-06T20:16:30.259Z,4.92
2023-03-06T20:19:00.775Z,4.90
2023-03-06T20:21:31.246Z,4.90
2023-03-06T20:23:59.670Z,4.85
2023-03-06T20:26:29.630Z,4.90
2023-03-06T20:28:58.451Z,4.95
2023-03-06T20:31:29.367Z,5.00
2023-03-06T20:33:59.400Z,4.99
2023-03-06T20:36:31.388Z,5.03
2023-03-06T20:39:10.186Z,5.03
2023-03-06T20:41:37.892Z,5.03
2023-03-06T20:44:08.780Z,5.06
2023-03-06T20:46:36.729Z,5.04
2023-03-06T20:49:05.492Z,5.05
2023-03-06T20:52:18.908Z,5.03
2023-03-06T20:54:46.611Z,4.99
2023-03-06T20:57:14.221Z,4.94
2023-03-06T20:59:44.161Z,4.92
2023-03-06T21:02:12.108Z,4.93
2023-03-06T21:04:41.104Z,4.86
2023-03-06T21:07:08.456Z,4.83
2023-03-06T21:09:37.743Z,4.77
2023-03-06T21:12:06.359Z,4.77
2023-03-06T21:14:33.871Z,4.60
2023-03-06T21:17:01.368Z,4.66
2023-03-06T21:19:29.037Z,4.63
2023-03-06T21:21:56.128Z,4.67
2023-03-06T21:24:23.906Z,4.61
2023-03-06T21:26:52.090Z,4.51
2023-03-06T21:29:19.654Z,4.55
2023-03-06T21:31:46.592Z,4.50
2023-03-06T21:34:13.788Z,4.46
2023-03-06T21:36:41.194Z,4.46
2023-03-06T21:39:08.550Z,4.36
2023-03-06T21:41:35.813Z,4.41
2023-03-06T21:44:06.026Z,4.47
2023-03-06T21:46:34.161Z,4.33
2023-03-06T21:49:04.550Z,4.40
2023-03-06T21:51:32.099Z,4.50
2023-03-06T21:53:59.463Z,4.52
2023-03-06T21:56:28.564Z,4.53
2023-03-06T21:58:58.258Z,4.45
2023-03-06T22:01:28.969Z,4.45
2023-03-06T22:03:58.322Z,4.41
2023-03-06T22:06:29.550Z,4.42
2023-03-06T22:08:59.637Z,4.50
2023-03-06T22:11:31.266Z,4.41
2023-03-06T22:13:58.784Z,4.50
2023-03-06T22:16:25.876Z,4.56
2023-03-06T22:18:53.214Z,4.58
2023-03-06T22:21:22.888Z,4.57
2023-03-06T22:23:59.455Z,4.54
2023-03-06T22:26:28.990Z,4.47
2023-03-06T22:28:56.526Z,4.32
2023-03-06T22:31:27.197Z,4.31
2023-03-06T22:33:57.030Z,4.21
2023-03-06T22:36:25.160Z,4.18
2023-03-06T22:39:04.407Z,4.13
2023-03-06T22:41:31.926Z,4.18
2023-03-06T22:44:02.280Z,4.23
2023-03-06T22:46:30.479Z,4.24
2023-03-06T22:49:00.234Z,4.29
2023-03-06T22:51:29.779Z,4.36
2023-03-06T22:53:57.130Z,4.34
2023-03-06T22:56:24.913Z,4.30
2023-03-06T22:58:52.364Z,4.26
2023-03-06T23:01:26.390Z,4.32
2023-03-06T23:04:08.455Z,4.37
2023-03-06T23:06:39.946Z,4.35
2023-03-06T23:09:14.809Z,4.37
2023-03-06T23:11:42.452Z,4.34
2023-03-06T23:14:12.581Z,4.38
2023-03-06T23:16:40.161Z,4.39
2023-03-06T23:19:07.731Z,4.39
2023-03-06T23:21:35.073Z,4.38
2023-03-06T23:24:03.028Z,4.41
2023-03-06T23:26:32.017Z,4.41
2023-03-06T23:28:59.217Z,4.42
2023-03-06T23:31:30.016Z,4.40
2023-03-06T23:34:00.579Z,4.34
2023-03-06T23:36:29.641Z,4.36
2023-03-06T23:38:58.752Z,4.33
2023-03-06T23:41:26.222Z,4.38
2023-03-06T23:43:55.121Z,4.35
2023-03-06T23:46:22.974Z,4.37
2023-03-06T23:48:50.316Z,4.35
2023-03-06T23:51:20.879Z,4.33
2023-03-06T23:53:56.259Z,4.36
2023-03-06T23:56:25.133Z,4.36
2023-03-06T23:58:52.974Z,4.36
